| time (UTC) | temp C | wind direction | speed KPH | gust KPH | rain 1hr cm | rain 24hr cm | rain mn cm | humidity % | barometer mb |
| 20260906002244 | 24 | 268 | 1.6 | 12.9 | 0.03 | 0.03 | 0.03 | 72 | 1015.5 |
| 20260906001244 | 26 | 355 | 4.8 | 9.7 | 0.00 | 0.00 | 0.00 | 64 | 1015.4 |
| 20260906000244 | 27 | 29 | 6.4 | 27.4 | 0.00 | 0.00 | 0.00 | 62 | 1014.9 |
| 20260905235244 | 30 | 263 | 25.7 | 33.8 | 0.00 | 0.00 | 0.00 | 63 | 1014.6 |
| 20260905234244 | 31 | 274 | 14.5 | 16.1 | 0.00 | 0.00 | 0.00 | 69 | 1013.5 |
| 20260905232244 | 31 | 232 | 9.7 | 16.1 | 0.00 | 0.00 | 0.00 | 66 | 1012.9 |
| 20260905231243 | 31 | 224 | 11.3 | 16.1 | 0.00 | 0.00 | 0.00 | 66 | 1013.0 |
| 20260905225244 | 32 | 238 | 11.3 | 14.5 | 0.00 | 0.00 | 0.00 | 63 | 1013.1 |
| 20260905224244 | 33 | 222 | 11.3 | 14.5 | 0.00 | 0.00 | 0.00 | 62 | 1013.3 |
| 20260905223244 | 33 | 230 | 11.3 | 12.9 | 0.00 | 0.00 | 0.00 | 61 | 1013.2 |
| 20260905222244 | 33 | 223 | 11.3 | 16.1 | 0.00 | 0.00 | 0.00 | 61 | 1013.1 |
| 20260905221244 | 33 | 262 | 12.9 | 16.1 | 0.00 | 0.00 | 0.00 | 59 | 1013.0 |
| 20260905220243 | 33 | 271 | 14.5 | 19.3 | 0.00 | 0.00 | 0.00 | 57 | 1012.7 |
| 20260905215243 | 35 | 272 | 14.5 | 16.1 | 0.00 | 0.00 | 0.00 | 55 | 1012.8 |
| 20260905214244 | 36 | 223 | 8.0 | 8.0 | 0.00 | 0.00 | 0.00 | 44 | 1012.7 |
| 20260905212243 | 36 | 215 | 4.8 | 6.4 | 0.00 | 0.00 | 0.00 | 42 | 1012.6 |
| 20260905211243 | 35 | 146 | 3.2 | 4.8 | 0.00 | 0.00 | 0.00 | 43 | 1012.7 |
| 20260905210243 | 35 | 160 | 0.0 | 6.4 | 0.00 | 0.00 | 0.00 | 42 | 1012.8 |
| 20260905205243 | 35 | 167 | 4.8 | 6.4 | 0.00 | 0.00 | 0.00 | 42 | 1012.9 |
| 20260905203243 | 36 | 117 | 3.2 | 6.4 | 0.00 | 0.00 | 0.00 | 43 | 1013.2 |
| 20260905202243 | 35 | 193 | 6.4 | 6.4 | 0.00 | 0.00 | 0.00 | 42 | 1013.2 |
| 20260905201243 | 36 | 118 | 8.0 | 8.0 | 0.00 | 0.00 | 0.00 | 44 | 1013.5 |
| 20260905200243 | 36 | 306 | 1.6 | 6.4 | 0.00 | 0.00 | 0.00 | 42 | 1013.7 |
| 20260905195243 | 36 | 226 | 4.8 | 6.4 | 0.00 | 0.00 | 0.00 | 42 | 1014.0 |
| 20260905194242 | 35 | 203 | 3.2 | 6.4 | 0.00 | 0.00 | 0.00 | 45 | 1014.1 |
| 20260905193243 | 35 | 101 | 1.6 | 4.8 | 0.00 | 0.00 | 0.00 | 46 | 1014.2 |
| 20260905192243 | 35 | 234 | 6.4 | 8.0 | 0.00 | 0.00 | 0.00 | 47 | 1014.4 |
| 20260905191243 | 35 | 51 | 1.6 | 12.9 | 0.00 | 0.00 | 0.00 | 45 | 1014.3 |
| 20260905190242 | 36 | 350 | 6.4 | 12.9 | 0.00 | 0.00 | 0.00 | 45 | 1014.3 |
| 20260905185242 | 35 | 63 | 3.2 | 9.7 | 0.00 | 0.00 | 0.00 | 44 | 1014.5 |
| 20260905183242 | 35 | 49 | 8.0 | 17.7 | 0.00 | 0.00 | 0.00 | 43 | 1014.8 |
| 20260905182242 | 35 | 155 | 3.2 | 9.7 | 0.00 | 0.00 | 0.00 | 44 | 1014.9 |
| 20260905180242 | 34 | 78 | 4.8 | 9.7 | 0.00 | 0.00 | 0.00 | 46 | 1015.1 |
| 20260905175242 | 35 | 225 | 0.0 | 6.4 | 0.00 | 0.00 | 0.00 | 50 | 1015.2 |
| 20260905174242 | 35 | 29 | 6.4 | 9.7 | 0.00 | 0.00 | 0.00 | 48 | 1015.3 |
| 20260905173242 | 35 | 105 | 6.4 | 12.9 | 0.00 | 0.00 | 0.00 | 50 | 1015.4 |
| 20260905172242 | 34 | 32 | 4.8 | 9.7 | 0.00 | 0.00 | 0.00 | 50 | 1015.6 |
| 20260905171242 | 34 | 164 | 3.2 | 8.0 | 0.00 | 0.00 | 0.00 | 50 | 1015.8 |
| 20260905170242 | 34 | 143 | 6.4 | 9.7 | 0.00 | 0.00 | 0.00 | 52 | 1016.0 |
| 20260905165241 | 33 | 57 | 12.9 | 12.9 | 0.00 | 0.00 | 0.00 | 52 | 1016.0 |
| 20260905164241 | 33 | 304 | 6.4 | 8.0 | 0.00 | 0.00 | 0.00 | 54 | 1016.2 |
| 20260905162241 | 33 | 22 | 1.6 | 11.3 | 0.00 | 0.00 | 0.00 | 53 | 1016.5 |
| 20260905161241 | 33 | 298 | 1.6 | 6.4 | 0.00 | 0.00 | 0.00 | 53 | 1016.5 |
| 20260905160241 | 33 | 39 | 6.4 | 16.1 | 0.00 | 0.00 | 0.00 | 54 | 1016.6 |
| 20260905154241 | 32 | 71 | 8.0 | 16.1 | 0.00 | 0.00 | 0.00 | 53 | 1016.6 |
| 20260905153241 | 32 | 110 | 1.6 | 11.3 | 0.00 | 0.00 | 0.00 | 54 | 1016.8 |
| 20260905152241 | 32 | 339 | 1.6 | 8.0 | 0.00 | 0.00 | 0.00 | 57 | 1016.8 |
| 20260905151241 | 32 | 51 | 6.4 | 6.4 | 0.00 | 0.00 | 0.00 | 56 | 1017.0 |
| 20260905150240 | 31 | 53 | 3.2 | 9.7 | 0.00 | 0.00 | 0.00 | 60 | 1017.0 |
| 20260905145241 | 31 | 281 | 1.6 | 8.0 | 0.00 | 0.00 | 0.00 | 62 | 1016.9 |
| 20260905143241 | 31 | 46 | 4.8 | 6.4 | 0.00 | 0.00 | 0.00 | 65 | 1017.0 |
| 20260905142240 | 30 | 290 | 4.8 | 9.7 | 0.00 | 0.00 | 0.00 | 66 | 1017.0 |
| 20260905140241 | 30 | 342 | 4.8 | 8.0 | 0.00 | 0.00 | 0.00 | 69 | 1017.1 |
| 20260905135240 | 30 | 309 | 4.8 | 6.4 | 0.00 | 0.00 | 0.00 | 70 | 1017.2 |
| 20260905134241 | 29 | 326 | 3.2 | 8.0 | 0.00 | 0.00 | 0.00 | 72 | 1017.1 |
| 20260905133241 | 28 | 355 | 4.8 | 6.4 | 0.00 | 0.00 | 0.00 | 74 | 1017.1 |
| 20260905132240 | 28 | 12 | 4.8 | 4.8 | 0.00 | 0.00 | 0.00 | 79 | 1017.0 |
| 20260905131240 | 27 | 336 | 1.6 | 6.4 | 0.00 | 0.00 | 0.00 | 82 | 1017.2 |
| 20260905130241 | 27 | 326 | 3.2 | 6.4 | 0.00 | 0.00 | 0.00 | 82 | 1017.3 |
| 20260905125240 | 26 | 345 | 1.6 | 4.8 | 0.00 | 0.00 | 0.00 | 85 | 1017.3 |
| 20260905124240 | 25 | 5 | 0.0 | 3.2 | 0.00 | 0.00 | 0.00 | 87 | 1017.1 |
| 20260905123240 | 25 | 360 | 1.6 | 4.8 | 0.00 | 0.00 | 0.00 | 88 | 1017.0 |
| 20260905122240 | 24 | 319 | 0.0 | 3.2 | 0.00 | 0.00 | 0.00 | 92 | 1017.0 |
| 20260905121240 | 23 | 339 | 0.0 | 3.2 | 0.00 | 0.00 | 0.00 | 93 | 1016.8 |
| 20260905120239 | 23 | 339 | 0.0 | 3.2 | 0.00 | 0.00 | 0.00 | 94 | 1016.7 |
| 20260905115240 | 22 | 339 | 0.0 | 1.6 | 0.00 | 0.00 | 0.00 | 94 | 1016.8 |
| 20260905113239 | 22 | 339 | 0.0 | 0.0 | 0.00 | 0.00 | 0.00 | 94 | 1016.6 |
| 20260905111239 | 22 | 209 | 0.0 | 0.0 | 0.00 | 0.00 | 0.00 | 94 | 1016.5 |
| 20260905110239 | 22 | 209 | 0.0 | 0.0 | 0.00 | 0.00 | 0.00 | 94 | 1016.4 |
| 20260905105239 | 22 | 209 | 0.0 | 0.0 | 0.00 | 0.00 | 0.00 | 94 | 1016.6 |
| 20260905104239 | 22 | 209 | 0.0 | 0.0 | 0.00 | 0.00 | 0.00 | 94 | 1016.3 |
| 20260905103239 | 22 | 209 | 0.0 | 0.0 | 0.00 | 0.00 | 0.00 | 94 | 1016.2 |
| 20260905102239 | 22 | 209 | 0.0 | 1.6 | 0.00 | 0.00 | 0.00 | 94 | 1016.3 |
| 20260905100239 | 22 | 182 | 0.0 | 0.0 | 0.00 | 0.00 | 0.00 | 94 | 1016.3 |
| 20260905094239 | 22 | 65 | 0.0 | 0.0 | 0.00 | 0.00 | 0.00 | 94 | 1016.3 |
| 20260905093239 | 22 | 65 | 0.0 | 0.0 | 0.00 | 0.00 | 0.00 | 94 | 1016.1 |
| 20260905092239 | 22 | 65 | 0.0 | 0.0 | 0.00 | 0.00 | 0.00 | 94 | 1016.1 |
| 20260905091239 | 22 | 65 | 0.0 | 0.0 | 0.00 | 0.00 | 0.00 | 94 | 1016.3 |
| 20260905090238 | 22 | 65 | 0.0 | 0.0 | 0.00 | 0.00 | 0.00 | 94 | 1016.2 |
| 20260905084238 | 22 | 65 | 0.0 | 0.0 | 0.00 | 0.00 | 0.00 | 93 | 1016.2 |
| 20260905083239 | 22 | 65 | 0.0 | 0.0 | 0.00 | 0.00 | 0.00 | 93 | 1016.1 |
| 20260905082238 | 22 | 65 | 0.0 | 0.0 | 0.00 | 0.00 | 0.00 | 93 | 1016.0 |
| 20260905081238 | 22 | 65 | 0.0 | 0.0 | 0.00 | 0.00 | 0.00 | 93 | 1016.2 |
| 20260905080238 | 23 | 65 | 0.0 | 0.0 | 0.00 | 0.00 | 0.00 | 93 | 1016.1 |
| 20260905075238 | 23 | 65 | 0.0 | 0.0 | 0.00 | 0.00 | 0.00 | 92 | 1016.0 |
| 20260905074238 | 23 | 65 | 0.0 | 0.0 | 0.00 | 0.00 | 0.00 | 92 | 1016.0 |
| 20260905073238 | 23 | 72 | 0.0 | 0.0 | 0.00 | 0.00 | 0.00 | 92 | 1015.8 |
| 20260905072238 | 23 | 72 | 0.0 | 0.0 | 0.00 | 0.00 | 0.00 | 92 | 1015.8 |
| 20260905070238 | 24 | 213 | 0.0 | 6.4 | 0.00 | 0.00 | 0.00 | 91 | 1015.8 |
| 20260905065237 | 23 | 227 | 0.0 | 3.2 | 0.00 | 0.00 | 0.00 | 92 | 1015.7 |
| 20260905063237 | 23 | 248 | 0.0 | 0.0 | 0.00 | 0.00 | 0.00 | 91 | 1016.1 |
| 20260905062238 | 23 | 248 | 0.0 | 0.0 | 0.00 | 0.00 | 0.00 | 89 | 1016.3 |
| 20260905060237 | 25 | 238 | 3.2 | 3.2 | 0.00 | 0.00 | 0.00 | 88 | 1016.5 |
| 20260905055237 | 25 | 237 | 1.6 | 3.2 | 0.00 | 0.00 | 0.00 | 88 | 1016.8 |
| 20260905053237 | 24 | 199 | 0.0 | 3.2 | 0.00 | 0.00 | 0.00 | 88 | 1016.9 |
| 20260905052237 | 25 | 209 | 0.0 | 3.2 | 0.00 | 0.00 | 0.00 | 87 | 1016.9 |
| 20260905051237 | 25 | 186 | 0.0 | 4.8 | 0.00 | 0.00 | 0.00 | 87 | 1016.8 |
| 20260905050237 | 25 | 211 | 3.2 | 3.2 | 0.00 | 0.00 | 0.00 | 86 | 1016.9 |
| 20260905044237 | 25 | 185 | 0.0 | 3.2 | 0.00 | 0.00 | 0.00 | 85 | 1017.0 |
| 20260905043236 | 25 | 188 | 0.0 | 1.6 | 0.00 | 0.00 | 0.00 | 84 | 1016.9 |
| 20260905041236 | 25 | 180 | 0.0 | 3.2 | 0.00 | 0.00 | 0.00 | 82 | 1017.1 |
| 20260905040236 | 25 | 210 | 1.6 | 6.4 | 0.00 | 0.00 | 0.00 | 80 | 1017.0 |
| 20260905035236 | 26 | 180 | 0.0 | 4.8 | 0.00 | 0.00 | 0.00 | 79 | 1017.0 |
| 20260905034236 | 26 | 168 | 1.6 | 3.2 | 0.00 | 0.00 | 0.00 | 78 | 1017.0 |
| 20260905033236 | 26 | 198 | 3.2 | 4.8 | 0.00 | 0.00 | 0.00 | 77 | 1016.9 |
| 20260905032236 | 26 | 195 | 1.6 | 3.2 | 0.00 | 0.00 | 0.00 | 74 | 1017.0 |
| 20260905031236 | 26 | 209 | 1.6 | 14.5 | 0.00 | 0.00 | 0.00 | 76 | 1017.1 |
| 20260905030236 | 25 | 184 | 0.0 | 0.0 | 0.00 | 0.00 | 0.00 | 79 | 1017.0 |
| 20260905025235 | 25 | 184 | 0.0 | 0.0 | 0.00 | 0.00 | 0.00 | 79 | 1016.9 |
| 20260905024235 | 25 | 184 | 0.0 | 0.0 | 0.00 | 0.00 | 0.00 | 79 | 1017.2 |
| 20260905023236 | 25 | 184 | 0.0 | 0.0 | 0.00 | 0.00 | 0.00 | 79 | 1017.4 |
| 20260905021236 | 26 | 184 | 0.0 | 0.0 | 0.00 | 0.00 | 0.00 | 75 | 1017.4 |
| 20260905015235 | 26 | 184 | 0.0 | 0.0 | 0.00 | 0.00 | 0.00 | 73 | 1017.4 |
| 20260905013235 | 27 | 184 | 0.0 | 0.0 | 0.00 | 0.00 | 0.00 | 72 | 1017.5 |
| 20260905012235 | 27 | 184 | 0.0 | 3.2 | 0.00 | 0.00 | 0.00 | 72 | 1017.2 |
| 20260905010235 | 27 | 76 | 0.0 | 0.0 | 0.00 | 0.00 | 0.00 | 70 | 1017.2 |
| 20260905005235 | 27 | 76 | 0.0 | 0.0 | 0.00 | 0.00 | 0.00 | 69 | 1016.6 |
| 20260905004235 | 28 | 76 | 0.0 | 3.2 | 0.00 | 0.00 | 0.00 | 68 | 1016.6 |
| 20260905003235 | 28 | 76 | 0.0 | 0.0 | 0.00 | 0.00 | 0.00 | 66 | 1016.5 |